Pitt Greenville Airport
KPGV : now visible

Airfield :











YOU CAN JOIN US ON...

 
LOGIN :

Register | Disclaimer

   EN    FR    IT 

 









Legend :    VFR   Marginal VFR   IFR   Intensive IFR   Very Intensive IFR
Visi :
Ceiling :
>= 8 km
>= 3000ft
5 to 8 km
1000 to 3000 ft
1500m to 5 km
500 to 1000 ft
800 to 1500m
200 to 500 ft
< 800m
< 200 ft
Symbols :   Thunderstorms  Fog  Heavy snow  Heavy precipitations  Wind > 20 kt






- Airport Elevation : 26 ft


KPGV - Pitt Greenville

CURRENT METAR :
  • 110455Z AUTO 34007KT 10SM OVC031 13/09 A3012 RMK AO2

EXPIRED METARs :
  • 110435Z AUTO 34007KT 10SM OVC031 14/09 A3012 RMK AO2
  • 110415Z AUTO 34006KT 10SM OVC031 15/09 A3011 RMK AO2
  • 110355Z AUTO 32005KT 10SM OVC031 15/09 A3012 RMK AO2
  • 110335Z AUTO 32007KT 303V003 10SM OVC031 15/10 A3011 RMK AO2
  • 110315Z AUTO 36004KT 10SM OVC031 15/10 A3010 RMK AO2
  • 110255Z AUTO 01006KT 10SM SCT018 OVC033 16/11 A3010 RMK AO2
  • 110235Z AUTO 33006KT 10SM SCT018 OVC029 16/12 A3011 RMK AO2
  • 110215Z AUTO 35008G15KT 10SM OVC027 16/13 A3009 RMK AO2

TAF KPGV
Valid from the 11 at 02:00 until the 12 at 00:00 UTC


110131Z 1102/1124 35009G18KT P6SM SCT015 BKN025
FM110300 34008G13KT 6SM -RA OVC015
FM110900 34010G16KT 6SM -RA OVC008
FM111500 02006KT P6SM OVC025
FM111800 35007KT P6SM SCT250 AMD LTD TO CLD VIS AND WIND



MET'MAP, your aeronautical weather chart ! - Copyright ORBIFLY December 2007 - Disclaimer

ORBIFLY MET'MAP TEAM :

Programming & Development : Alexandra Zaïnal
Concept & original design : Baudouin d'Aumeries
Assistance for programming : Marc-Olivier Méhu
Technical & hardware support : Manuel Goepfert

Contact : metmap@orbifly.com




SOURCES & CREDITS :

   NOAA       Earth
Advisory